createdAt,value
2018-05-14T00:00:01.080Z,3.65
2018-05-14T00:00:13.650Z,3.65
2018-05-14T00:00:26.082Z,3.65
2018-05-14T00:00:38.523Z,3.65
2018-05-14T00:00:51.047Z,3.65
2018-05-14T00:01:03.481Z,3.65
2018-05-14T00:01:16.057Z,3.65
2018-05-14T00:01:28.509Z,3.65
2018-05-14T00:01:40.917Z,3.65
2018-05-14T00:01:53.329Z,3.65
2018-05-14T00:02:05.738Z,3.65
2018-05-14T00:02:18.250Z,3.65
2018-05-14T00:02:30.682Z,3.65
2018-05-14T00:02:43.223Z,3.65
2018-05-14T00:02:55.631Z,3.65
2018-05-14T00:03:08.054Z,3.65
2018-05-14T00:03:20.484Z,3.65
2018-05-14T00:03:32.908Z,3.65
2018-05-14T00:03:45.813Z,3.65
2018-05-14T00:03:58.762Z,3.65
2018-05-14T00:04:11.177Z,3.65
2018-05-14T00:04:23.581Z,3.65
2018-05-14T00:04:35.980Z,3.65
2018-05-14T00:04:48.414Z,3.65
2018-05-14T00:05:00.830Z,3.65
2018-05-14T00:05:13.287Z,3.65
2018-05-14T00:05:25.692Z,3.65
2018-05-14T00:05:38.107Z,3.65
2018-05-14T00:05:50.528Z,3.65
2018-05-14T00:06:02.940Z,3.65
2018-05-14T00:06:15.373Z,3.65
2018-05-14T00:06:27.789Z,3.65
2018-05-14T00:06:40.272Z,3.65
2018-05-14T00:06:52.667Z,3.25
2018-05-14T00:07:05.078Z,3.25
2018-05-14T00:07:17.546Z,3.25
2018-05-14T00:07:30.056Z,3.25
2018-05-14T00:07:42.464Z,3.25
2018-05-14T00:07:54.991Z,3.25
2018-05-14T00:08:07.462Z,3.25
2018-05-14T00:08:19.870Z,3.25
2018-05-14T00:08:32.281Z,3.25
2018-05-14T00:08:44.692Z,3.25
2018-05-14T00:08:57.088Z,3.25
2018-05-14T00:09:09.590Z,3.25
2018-05-14T00:09:22.014Z,3.25
2018-05-14T00:09:34.562Z,3.25
2018-05-14T00:09:46.983Z,3.25
2018-05-14T00:09:59.426Z,3.25
2018-05-14T00:10:11.881Z,3.25
2018-05-14T00:10:24.303Z,3.25
2018-05-14T00:10:36.729Z,3.25
2018-05-14T00:10:49.136Z,3.25
2018-05-14T00:11:01.567Z,3.25
2018-05-14T00:11:13.984Z,3.25
2018-05-14T00:11:26.373Z,3.25
2018-05-14T00:11:38.942Z,3.25
2018-05-14T00:11:51.412Z,3.25
2018-05-14T00:12:03.838Z,3.25
2018-05-14T00:12:16.271Z,3.25
2018-05-14T00:12:28.721Z,3.25
2018-05-14T00:12:41.143Z,3.25
2018-05-14T00:12:53.563Z,3.25
2018-05-14T00:13:05.986Z,3.25
2018-05-14T00:13:18.384Z,3.25
2018-05-14T00:13:30.797Z,3.25
2018-05-14T00:13:43.215Z,3.25
2018-05-14T00:13:55.628Z,3.25
2018-05-14T00:14:08.059Z,3.25
2018-05-14T00:14:20.473Z,3.25
2018-05-14T00:14:32.891Z,3.25
2018-05-14T00:14:45.380Z,3.25
2018-05-14T00:14:57.799Z,3.25
2018-05-14T00:15:10.288Z,3.25
2018-05-14T00:15:22.707Z,3.25
2018-05-14T00:15:35.416Z,3.25
2018-05-14T00:15:47.851Z,3.25
2018-05-14T00:16:00.271Z,3.25
2018-05-14T00:16:12.777Z,3.25
2018-05-14T00:16:25.209Z,3.25
2018-05-14T00:16:37.625Z,3.25
2018-05-14T00:16:50.035Z,3.25
2018-05-14T00:17:02.443Z,3.45
2018-05-14T00:17:14.854Z,3.45
2018-05-14T00:17:27.278Z,3.45
2018-05-14T00:17:39.778Z,3.45
2018-05-14T00:17:52.317Z,3.45
2018-05-14T00:18:04.746Z,3.45
2018-05-14T00:18:17.377Z,3.45
2018-05-14T00:18:29.809Z,3.45
2018-05-14T00:18:42.233Z,3.45
2018-05-14T00:18:54.669Z,3.45
2018-05-14T00:19:07.073Z,3.45
2018-05-14T00:19:19.566Z,3.45
2018-05-14T00:19:31.967Z,3.45
2018-05-14T00:19:44.377Z,3.45
2018-05-14T00:19:56.790Z,3.45
2018-05-14T00:20:09.208Z,3.45
2018-05-14T00:20:21.633Z,3.45
2018-05-14T00:20:34.073Z,3.45
2018-05-14T00:20:46.478Z,3.45
2018-05-14T00:20:58.884Z,3.45
2018-05-14T00:21:11.319Z,3.45
2018-05-14T00:21:23.728Z,3.45
2018-05-14T00:21:36.176Z,3.45
2018-05-14T00:21:48.603Z,3.45
2018-05-14T00:22:01.036Z,3.45
2018-05-14T00:22:13.615Z,3.45
2018-05-14T00:22:26.027Z,3.45
2018-05-14T00:22:38.468Z,3.45
2018-05-14T00:22:50.895Z,3.45
2018-05-14T00:23:03.319Z,3.45
2018-05-14T00:23:15.729Z,3.45
2018-05-14T00:23:28.168Z,3.45
2018-05-14T00:23:40.602Z,3.45
2018-05-14T00:23:53.008Z,3.45
2018-05-14T00:24:05.509Z,3.45
2018-05-14T00:24:17.922Z,3.45
2018-05-14T00:24:30.319Z,3.45
2018-05-14T00:24:42.743Z,3.45
2018-05-14T00:24:55.311Z,3.45
2018-05-14T00:25:07.800Z,3.45
2018-05-14T00:25:20.229Z,3.45
2018-05-14T00:25:32.649Z,3.45
2018-05-14T00:25:45.041Z,3.45
2018-05-14T00:25:57.446Z,3.45
2018-05-14T00:26:09.887Z,3.45
2018-05-14T00:26:22.308Z,3.45
2018-05-14T00:26:34.730Z,3.45
2018-05-14T00:26:47.148Z,3.45
2018-05-14T00:26:59.556Z,3.83
2018-05-14T00:27:11.982Z,3.83
2018-05-14T00:27:24.398Z,3.83
2018-05-14T00:27:36.813Z,3.83
2018-05-14T00:27:49.215Z,3.83
2018-05-14T00:28:01.621Z,3.83
2018-05-14T00:28:14.052Z,3.83
2018-05-14T00:28:26.465Z,3.83
2018-05-14T00:28:38.890Z,3.83
2018-05-14T00:28:51.324Z,3.83
2018-05-14T00:29:03.735Z,3.83
2018-05-14T00:29:16.161Z,3.83
2018-05-14T00:29:28.568Z,3.83
2018-05-14T00:29:40.976Z,3.83
2018-05-14T00:29:53.431Z,3.83
2018-05-14T00:30:05.831Z,3.83
2018-05-14T00:30:18.247Z,3.83
2018-05-14T00:30:30.653Z,3.83
2018-05-14T00:30:43.056Z,3.83
2018-05-14T00:30:55.470Z,3.83
2018-05-14T00:31:07.896Z,3.83
2018-05-14T00:31:20.328Z,3.83
2018-05-14T00:31:32.727Z,3.83
2018-05-14T00:31:45.140Z,3.83
2018-05-14T00:31:57.612Z,3.83
2018-05-14T00:32:10.039Z,3.83
2018-05-14T00:32:22.474Z,3.83
2018-05-14T00:32:34.874Z,3.83
2018-05-14T00:32:47.372Z,3.83
2018-05-14T00:32:59.784Z,3.83
2018-05-14T00:33:12.245Z,3.83
2018-05-14T00:33:24.659Z,3.83
2018-05-14T00:33:37.085Z,3.83
2018-05-14T00:33:49.500Z,3.83
2018-05-14T00:34:01.904Z,3.83
2018-05-14T00:34:14.397Z,3.83
2018-05-14T00:34:26.888Z,3.83
2018-05-14T00:34:39.293Z,3.83
2018-05-14T00:34:51.769Z,3.83
2018-05-14T00:35:04.195Z,3.83
2018-05-14T00:35:16.714Z,3.83
2018-05-14T00:35:29.129Z,3.83
2018-05-14T00:35:41.541Z,3.83
2018-05-14T00:35:54.081Z,3.83
2018-05-14T00:36:06.490Z,3.83
2018-05-14T00:36:18.911Z,3.83
2018-05-14T00:36:31.313Z,3.83
2018-05-14T00:36:43.729Z,3.83
2018-05-14T00:36:56.209Z,3.58
2018-05-14T00:37:08.644Z,3.58
2018-05-14T00:37:21.154Z,3.58
2018-05-14T00:37:33.648Z,3.58
2018-05-14T00:37:46.048Z,3.58
2018-05-14T00:37:58.492Z,3.58
2018-05-14T00:38:10.908Z,3.58
2018-05-14T00:38:23.321Z,3.58
2018-05-14T00:38:35.761Z,3.58
2018-05-14T00:38:48.167Z,3.58
2018-05-14T00:39:00.583Z,3.58
2018-05-14T00:39:13.000Z,3.58
2018-05-14T00:39:25.455Z,3.58
2018-05-14T00:39:37.897Z,3.58
2018-05-14T00:39:50.316Z,3.58
2018-05-14T00:40:02.733Z,3.58
2018-05-14T00:40:15.151Z,3.58
2018-05-14T00:40:27.592Z,3.58
2018-05-14T00:40:40.035Z,3.58
2018-05-14T00:40:52.447Z,3.58
2018-05-14T00:41:04.844Z,3.58
2018-05-14T00:41:17.241Z,3.58
2018-05-14T00:41:29.649Z,3.58
2018-05-14T00:41:42.083Z,3.58
2018-05-14T00:41:54.502Z,3.58
2018-05-14T00:42:06.912Z,3.58
2018-05-14T00:42:19.306Z,3.58
2018-05-14T00:42:31.753Z,3.58
2018-05-14T00:42:44.146Z,3.58
2018-05-14T00:42:56.548Z,3.58
2018-05-14T00:43:08.964Z,3.58
2018-05-14T00:43:21.357Z,3.58
2018-05-14T00:43:33.832Z,3.58
2018-05-14T00:43:46.252Z,3.58
2018-05-14T00:43:58.687Z,3.58
2018-05-14T00:44:11.099Z,3.58
2018-05-14T00:44:23.527Z,3.58
2018-05-14T00:44:35.992Z,3.58
2018-05-14T00:44:48.405Z,3.58
2018-05-14T00:45:00.816Z,3.58
2018-05-14T00:45:13.317Z,3.58
2018-05-14T00:45:25.734Z,3.58
2018-05-14T00:45:38.151Z,3.58
2018-05-14T00:45:50.561Z,3.58
2018-05-14T00:46:02.969Z,3.58
2018-05-14T00:46:15.400Z,3.58
2018-05-14T00:46:27.800Z,3.58
2018-05-14T00:46:40.209Z,3.58
2018-05-14T00:46:52.623Z,3.91
2018-05-14T00:47:05.172Z,3.91
2018-05-14T00:47:17.570Z,3.91
2018-05-14T00:47:30.509Z,3.91
2018-05-14T00:47:42.916Z,3.91
2018-05-14T00:47:55.319Z,3.91
2018-05-14T00:48:07.722Z,3.91
2018-05-14T00:48:20.227Z,3.91
2018-05-14T00:48:32.632Z,3.91
2018-05-14T00:48:45.046Z,3.91
2018-05-14T00:48:57.486Z,3.91
2018-05-14T00:49:09.886Z,3.91
2018-05-14T00:49:22.577Z,3.91
2018-05-14T00:49:36.069Z,3.91
2018-05-14T00:49:48.470Z,3.91
2018-05-14T00:50:00.877Z,3.91
2018-05-14T00:50:13.273Z,3.91
2018-05-14T00:50:25.678Z,3.91
2018-05-14T00:50:38.081Z,3.91
2018-05-14T00:50:50.627Z,3.91
2018-05-14T00:51:03.034Z,3.91
2018-05-14T00:51:15.463Z,3.91
2018-05-14T00:51:27.875Z,3.91
2018-05-14T00:51:40.296Z,3.91
2018-05-14T00:51:52.702Z,3.91
2018-05-14T00:52:05.147Z,3.91
2018-05-14T00:52:17.556Z,3.91
2018-05-14T00:52:29.974Z,3.91
2018-05-14T00:52:42.398Z,3.91
2018-05-14T00:52:54.817Z,3.91
2018-05-14T00:53:07.257Z,3.91
2018-05-14T00:53:19.668Z,3.91
2018-05-14T00:53:32.067Z,3.91
2018-05-14T00:53:44.507Z,3.91
2018-05-14T00:53:56.916Z,3.91
2018-05-14T00:54:09.400Z,3.91
2018-05-14T00:54:21.900Z,3.91
2018-05-14T00:54:34.309Z,3.91
2018-05-14T00:54:46.711Z,3.91
2018-05-14T00:54:59.137Z,3.91
2018-05-14T00:55:11.545Z,3.91
2018-05-14T00:55:23.954Z,3.91
2018-05-14T00:55:36.356Z,3.91
2018-05-14T00:55:48.757Z,3.91
2018-05-14T00:56:01.196Z,3.91
2018-05-14T00:56:13.616Z,3.91
2018-05-14T00:56:26.029Z,3.91
2018-05-14T00:56:38.466Z,3.91
2018-05-14T00:56:50.893Z,3.91
2018-05-14T00:57:03.352Z,3.62
2018-05-14T00:57:15.770Z,3.62
2018-05-14T00:57:28.165Z,3.62
2018-05-14T00:57:40.678Z,3.62
2018-05-14T00:57:53.098Z,3.62
2018-05-14T00:58:05.509Z,3.62
2018-05-14T00:58:17.925Z,3.62
2018-05-14T00:58:30.413Z,3.62
2018-05-14T00:58:42.808Z,3.62
2018-05-14T00:58:55.202Z,3.62
2018-05-14T00:59:07.605Z,3.62
2018-05-14T00:59:20.036Z,3.62
2018-05-14T00:59:32.426Z,3.62
2018-05-14T00:59:44.854Z,3.62
2018-05-14T00:59:57.271Z,3.62
2018-05-14T01:00:09.878Z,3.62
2018-05-14T01:00:22.328Z,3.62
2018-05-14T01:00:34.763Z,3.62
2018-05-14T01:00:47.216Z,3.62
2018-05-14T01:00:59.647Z,3.62
2018-05-14T01:01:12.097Z,3.62
2018-05-14T01:01:24.518Z,3.62
2018-05-14T01:01:36.938Z,3.62
2018-05-14T01:01:49.341Z,3.62
2018-05-14T01:02:01.763Z,3.62
2018-05-14T01:02:14.203Z,3.62
2018-05-14T01:02:26.645Z,3.62
2018-05-14T01:02:39.059Z,3.62
2018-05-14T01:02:51.500Z,3.62
2018-05-14T01:03:03.952Z,3.62
2018-05-14T01:03:16.382Z,3.62
2018-05-14T01:03:28.805Z,3.62
2018-05-14T01:03:41.228Z,3.62
2018-05-14T01:03:53.657Z,3.62
2018-05-14T01:04:06.080Z,3.62
2018-05-14T01:04:18.588Z,3.62
2018-05-14T01:04:31.027Z,3.62
2018-05-14T01:04:43.449Z,3.62
2018-05-14T01:04:55.858Z,3.62
2018-05-14T01:05:08.393Z,3.62
2018-05-14T01:05:20.796Z,3.62
2018-05-14T01:05:33.243Z,3.62
2018-05-14T01:05:45.645Z,3.62
2018-05-14T01:05:58.053Z,3.62
2018-05-14T01:06:10.530Z,3.62
2018-05-14T01:06:22.939Z,3.62
2018-05-14T01:06:36.214Z,3.62
2018-05-14T01:06:49.093Z,3.62
2018-05-14T01:07:01.502Z,3.5
2018-05-14T01:07:13.928Z,3.5
2018-05-14T01:07:26.427Z,3.5
2018-05-14T01:07:38.837Z,3.5
2018-05-14T01:07:51.250Z,3.5
2018-05-14T01:08:03.644Z,3.5
2018-05-14T01:08:16.052Z,3.5
2018-05-14T01:08:28.546Z,3.5
2018-05-14T01:08:41.065Z,3.5
2018-05-14T01:08:53.468Z,3.5
2018-05-14T01:09:05.892Z,3.5
2018-05-14T01:09:18.314Z,3.5
2018-05-14T01:09:30.730Z,3.5
2018-05-14T01:09:43.147Z,3.5
2018-05-14T01:09:55.561Z,3.5
2018-05-14T01:10:07.996Z,3.5
2018-05-14T01:10:20.403Z,3.5
2018-05-14T01:10:32.815Z,3.5
2018-05-14T01:10:45.207Z,3.5
2018-05-14T01:10:57.630Z,3.5
2018-05-14T01:11:10.040Z,3.5
2018-05-14T01:11:22.444Z,3.5
2018-05-14T01:11:34.945Z,3.5
2018-05-14T01:11:47.492Z,3.5
2018-05-14T01:11:59.905Z,3.5
2018-05-14T01:12:12.308Z,3.5
2018-05-14T01:12:24.714Z,3.5
2018-05-14T01:12:37.125Z,3.5
2018-05-14T01:12:49.592Z,3.5
2018-05-14T01:13:02.010Z,3.5
2018-05-14T01:13:14.434Z,3.5
2018-05-14T01:13:26.844Z,3.5
2018-05-14T01:13:39.246Z,3.5
2018-05-14T01:13:51.658Z,3.5
2018-05-14T01:14:04.063Z,3.5
2018-05-14T01:14:16.483Z,3.5
2018-05-14T01:14:28.885Z,3.5
2018-05-14T01:14:41.284Z,3.5
2018-05-14T01:14:53.692Z,3.5
2018-05-14T01:15:06.110Z,3.5
2018-05-14T01:15:18.549Z,3.5
2018-05-14T01:15:30.944Z,3.5
2018-05-14T01:15:43.441Z,3.5
2018-05-14T01:15:55.854Z,3.5
2018-05-14T01:16:08.264Z,3.5
2018-05-14T01:16:20.670Z,3.5
2018-05-14T01:16:33.072Z,3.5
2018-05-14T01:16:45.483Z,3.5
2018-05-14T01:16:57.884Z,3.7
2018-05-14T01:17:10.295Z,3.7
2018-05-14T01:17:22.692Z,3.7
2018-05-14T01:17:35.204Z,3.7
2018-05-14T01:17:47.601Z,3.7
2018-05-14T01:18:00.003Z,3.7
2018-05-14T01:18:12.414Z,3.7
2018-05-14T01:18:24.953Z,3.7
2018-05-14T01:18:37.354Z,3.7
2018-05-14T01:18:49.860Z,3.7
2018-05-14T01:19:02.274Z,3.7
2018-05-14T01:19:14.673Z,3.7
2018-05-14T01:19:27.082Z,3.7
2018-05-14T01:19:39.492Z,3.7
2018-05-14T01:19:51.898Z,3.7
2018-05-14T01:20:04.308Z,3.7
2018-05-14T01:20:16.705Z,3.7
2018-05-14T01:20:29.133Z,3.7
2018-05-14T01:20:41.539Z,3.7
2018-05-14T01:20:53.942Z,3.7
2018-05-14T01:21:06.338Z,3.7
2018-05-14T01:21:18.732Z,3.7
2018-05-14T01:21:31.131Z,3.7
2018-05-14T01:21:43.523Z,3.7
2018-05-14T01:21:55.909Z,3.7
2018-05-14T01:22:08.305Z,3.7
2018-05-14T01:22:20.715Z,3.7
2018-05-14T01:22:33.129Z,3.7
2018-05-14T01:22:45.529Z,3.7
2018-05-14T01:22:57.947Z,3.7
2018-05-14T01:23:10.373Z,3.7
2018-05-14T01:23:22.913Z,3.7
2018-05-14T01:23:35.395Z,3.7
2018-05-14T01:23:47.808Z,3.7
2018-05-14T01:24:00.286Z,3.7
2018-05-14T01:24:12.693Z,3.7
2018-05-14T01:24:25.097Z,3.7
2018-05-14T01:24:37.508Z,3.7
2018-05-14T01:24:50.052Z,3.7
2018-05-14T01:25:02.452Z,3.7
2018-05-14T01:25:14.859Z,3.7
2018-05-14T01:25:27.268Z,3.7
2018-05-14T01:25:39.665Z,3.7
2018-05-14T01:25:52.080Z,3.7
2018-05-14T01:26:04.480Z,3.7
2018-05-14T01:26:16.903Z,3.7
2018-05-14T01:26:29.333Z,3.7
2018-05-14T01:26:41.752Z,3.7
2018-05-14T01:26:54.167Z,3.55
2018-05-14T01:27:06.573Z,3.55
2018-05-14T01:27:19.015Z,3.55
2018-05-14T01:27:31.423Z,3.55
2018-05-14T01:27:43.818Z,3.55
2018-05-14T01:27:56.225Z,3.55
2018-05-14T01:28:09.186Z,3.55
2018-05-14T01:28:22.299Z,3.55
2018-05-14T01:28:34.713Z,3.55
2018-05-14T01:28:47.124Z,3.55
2018-05-14T01:28:59.534Z,3.55
2018-05-14T01:29:11.970Z,3.55
2018-05-14T01:29:24.387Z,3.55
2018-05-14T01:29:36.815Z,3.55
2018-05-14T01:29:49.252Z,3.55
2018-05-14T01:30:01.675Z,3.55
2018-05-14T01:30:14.113Z,3.55
2018-05-14T01:30:26.519Z,3.55
2018-05-14T01:30:38.919Z,3.55
2018-05-14T01:30:51.335Z,3.55
2018-05-14T01:31:03.737Z,3.55
2018-05-14T01:31:16.130Z,3.55
2018-05-14T01:31:28.541Z,3.55
2018-05-14T01:31:41.046Z,3.55
2018-05-14T01:31:53.444Z,3.55
2018-05-14T01:32:05.858Z,3.55
2018-05-14T01:32:18.283Z,3.55
2018-05-14T01:32:30.696Z,3.55
2018-05-14T01:32:43.103Z,3.55
2018-05-14T01:32:55.527Z,3.55
2018-05-14T01:33:07.941Z,3.55
2018-05-14T01:33:20.358Z,3.55
2018-05-14T01:33:32.765Z,3.55
2018-05-14T01:33:45.180Z,3.55
2018-05-14T01:33:57.620Z,3.55
2018-05-14T01:34:10.028Z,3.55
2018-05-14T01:34:22.435Z,3.55
2018-05-14T01:34:34.877Z,3.55
2018-05-14T01:34:47.334Z,3.55
2018-05-14T01:34:59.768Z,3.55
2018-05-14T01:35:12.182Z,3.55
2018-05-14T01:35:24.579Z,3.55
2018-05-14T01:35:36.990Z,3.55
2018-05-14T01:35:49.503Z,3.55
2018-05-14T01:36:01.916Z,3.55
2018-05-14T01:36:14.325Z,3.55
2018-05-14T01:36:26.756Z,3.55
2018-05-14T01:36:39.162Z,3.55
2018-05-14T01:36:51.577Z,3.55
2018-05-14T01:37:04.014Z,3.81
2018-05-14T01:37:16.412Z,3.81
2018-05-14T01:37:28.849Z,3.81
2018-05-14T01:37:41.254Z,3.81
2018-05-14T01:37:53.784Z,3.81
2018-05-14T01:38:06.203Z,3.81
2018-05-14T01:38:18.620Z,3.81
2018-05-14T01:38:31.028Z,3.81
2018-05-14T01:38:43.469Z,3.81
2018-05-14T01:38:55.881Z,3.81
2018-05-14T01:39:08.281Z,3.81
2018-05-14T01:39:20.698Z,3.81
2018-05-14T01:39:33.111Z,3.81
2018-05-14T01:39:45.520Z,3.81
2018-05-14T01:39:57.933Z,3.81
2018-05-14T01:40:10.349Z,3.81
2018-05-14T01:40:22.761Z,3.81
2018-05-14T01:40:35.213Z,3.81
2018-05-14T01:40:47.633Z,3.81
2018-05-14T01:41:00.048Z,3.81
2018-05-14T01:41:12.454Z,3.81
2018-05-14T01:41:24.893Z,3.81
2018-05-14T01:41:37.371Z,3.81
2018-05-14T01:41:49.782Z,3.81
2018-05-14T01:42:02.185Z,3.81
2018-05-14T01:42:14.612Z,3.81
2018-05-14T01:42:27.018Z,3.81
2018-05-14T01:42:39.432Z,3.81
2018-05-14T01:42:51.841Z,3.81
2018-05-14T01:43:04.309Z,3.81
2018-05-14T01:43:16.718Z,3.81
2018-05-14T01:43:29.133Z,3.81
2018-05-14T01:43:41.545Z,3.81
2018-05-14T01:43:53.954Z,3.81
2018-05-14T01:44:06.363Z,3.81
2018-05-14T01:44:18.765Z,3.81
2018-05-14T01:44:31.173Z,3.81
2018-05-14T01:44:43.600Z,3.81
2018-05-14T01:44:56.031Z,3.81
2018-05-14T01:45:08.445Z,3.81
2018-05-14T01:45:20.832Z,3.81
2018-05-14T01:45:33.247Z,3.81
2018-05-14T01:45:45.662Z,3.81
2018-05-14T01:45:58.061Z,3.81
2018-05-14T01:46:10.455Z,3.81
2018-05-14T01:46:22.861Z,3.81
2018-05-14T01:46:35.275Z,3.81
2018-05-14T01:46:47.675Z,3.81
2018-05-14T01:47:00.097Z,3.8
2018-05-14T01:47:12.520Z,3.8
2018-05-14T01:47:24.928Z,3.8
2018-05-14T01:47:37.333Z,3.8
2018-05-14T01:47:49.748Z,3.8
2018-05-14T01:48:02.213Z,3.8
2018-05-14T01:48:14.722Z,3.8
2018-05-14T01:48:27.144Z,3.8
2018-05-14T01:48:39.550Z,3.8
2018-05-14T01:48:51.958Z,3.8
2018-05-14T01:49:04.358Z,3.8
2018-05-14T01:49:16.772Z,3.8
2018-05-14T01:49:29.196Z,3.8
2018-05-14T01:49:41.613Z,3.8
2018-05-14T01:49:54.120Z,3.8
2018-05-14T01:50:06.538Z,3.8
2018-05-14T01:50:18.958Z,3.8
2018-05-14T01:50:31.389Z,3.8
2018-05-14T01:50:43.821Z,3.8
2018-05-14T01:51:01.449Z,3.8
2018-05-14T01:51:13.880Z,3.8
2018-05-14T01:51:26.280Z,3.8
2018-05-14T01:51:38.683Z,3.8
2018-05-14T01:51:51.094Z,3.8
2018-05-14T01:52:03.509Z,3.8
2018-05-14T01:52:15.923Z,3.8
2018-05-14T01:52:28.329Z,3.8
2018-05-14T01:52:40.739Z,3.8
2018-05-14T01:52:53.157Z,3.8
2018-05-14T01:53:05.573Z,3.8
2018-05-14T01:53:17.982Z,3.8
2018-05-14T01:53:30.413Z,3.8
2018-05-14T01:53:42.821Z,3.8
2018-05-14T01:53:55.231Z,3.8
2018-05-14T01:54:07.925Z,3.8
2018-05-14T01:54:20.338Z,3.8
2018-05-14T01:54:32.753Z,3.8
2018-05-14T01:54:45.181Z,3.8
2018-05-14T01:54:57.672Z,3.8
2018-05-14T01:55:10.194Z,3.8
2018-05-14T01:55:22.606Z,3.8
2018-05-14T01:55:35.011Z,3.8
2018-05-14T01:55:47.425Z,3.8
2018-05-14T01:55:59.843Z,3.8
2018-05-14T01:56:12.273Z,3.8
2018-05-14T01:56:24.704Z,3.8
2018-05-14T01:56:37.137Z,3.8
2018-05-14T01:56:49.552Z,3.8
2018-05-14T01:57:01.968Z,3.85
2018-05-14T01:57:14.383Z,3.85
2018-05-14T01:57:26.916Z,3.85
2018-05-14T01:57:39.347Z,3.85
2018-05-14T01:57:51.832Z,3.85
2018-05-14T01:58:04.241Z,3.85
2018-05-14T01:58:16.667Z,3.85
2018-05-14T01:58:29.083Z,3.85
2018-05-14T01:58:41.506Z,3.85
2018-05-14T01:58:53.921Z,3.85
2018-05-14T01:59:06.407Z,3.85
2018-05-14T01:59:18.819Z,3.85
2018-05-14T01:59:31.264Z,3.85
2018-05-14T01:59:43.685Z,3.85
2018-05-14T01:59:56.096Z,3.85
2018-05-14T02:00:08.696Z,3.85
2018-05-14T02:00:21.152Z,3.85
2018-05-14T02:00:33.743Z,3.85
2018-05-14T02:00:46.180Z,3.85
2018-05-14T02:00:58.690Z,3.85
2018-05-14T02:01:11.120Z,3.85
2018-05-14T02:01:23.567Z,3.85
2018-05-14T02:01:35.988Z,3.85
2018-05-14T02:01:48.405Z,3.85
2018-05-14T02:02:00.818Z,3.85
2018-05-14T02:02:13.229Z,3.85
2018-05-14T02:02:25.648Z,3.85
2018-05-14T02:02:38.057Z,3.85
2018-05-14T02:02:50.482Z,3.85
2018-05-14T02:03:02.902Z,3.85
2018-05-14T02:03:15.339Z,3.85
2018-05-14T02:03:27.755Z,3.85
2018-05-14T02:03:40.206Z,3.85
2018-05-14T02:03:52.615Z,3.85
2018-05-14T02:04:05.120Z,3.85
2018-05-14T02:04:17.536Z,3.85
2018-05-14T02:04:29.943Z,3.85
2018-05-14T02:04:42.369Z,3.85
2018-05-14T02:04:54.787Z,3.85
2018-05-14T02:05:07.204Z,3.85
2018-05-14T02:05:19.629Z,3.85
2018-05-14T02:05:32.063Z,3.85
2018-05-14T02:05:44.475Z,3.85
2018-05-14T02:05:56.885Z,3.85
2018-05-14T02:06:09.282Z,3.85
2018-05-14T02:06:21.703Z,3.85
2018-05-14T02:06:34.129Z,3.85
2018-05-14T02:06:46.657Z,3.85
2018-05-14T02:06:59.755Z,4.2
2018-05-14T02:07:12.170Z,4.2
2018-05-14T02:07:24.576Z,4.2
2018-05-14T02:07:36.990Z,4.2
2018-05-14T02:07:49.396Z,4.2
2018-05-14T02:08:01.798Z,4.2
2018-05-14T02:08:14.215Z,4.2
2018-05-14T02:08:26.670Z,4.2
2018-05-14T02:08:39.083Z,4.2
2018-05-14T02:08:51.493Z,4.2
2018-05-14T02:09:03.966Z,4.2
2018-05-14T02:09:16.383Z,4.2
2018-05-14T02:09:28.797Z,4.2
2018-05-14T02:09:41.219Z,4.2
2018-05-14T02:09:53.633Z,4.2
2018-05-14T02:10:06.050Z,4.2
2018-05-14T02:10:18.540Z,4.2
2018-05-14T02:10:30.949Z,4.2
2018-05-14T02:10:43.377Z,4.2
2018-05-14T02:10:55.799Z,4.2
2018-05-14T02:11:08.223Z,4.2
2018-05-14T02:11:20.643Z,4.2
2018-05-14T02:11:33.057Z,4.2
2018-05-14T02:11:45.567Z,4.2
2018-05-14T02:11:58.093Z,4.2
2018-05-14T02:12:10.520Z,4.2
2018-05-14T02:12:22.917Z,4.2
2018-05-14T02:12:35.379Z,4.2
2018-05-14T02:12:47.779Z,4.2
2018-05-14T02:13:00.286Z,4.2
2018-05-14T02:13:12.694Z,4.2
2018-05-14T02:13:25.102Z,4.2
2018-05-14T02:13:37.527Z,4.2
2018-05-14T02:13:49.943Z,4.2
2018-05-14T02:14:02.361Z,4.2
2018-05-14T02:14:14.773Z,4.2
2018-05-14T02:14:27.177Z,4.2
2018-05-14T02:14:39.594Z,4.2
2018-05-14T02:14:52.031Z,4.2
2018-05-14T02:15:04.449Z,4.2
2018-05-14T02:15:16.871Z,4.2
2018-05-14T02:15:29.281Z,4.2
2018-05-14T02:15:41.870Z,4.2
2018-05-14T02:15:54.289Z,4.2
2018-05-14T02:16:06.703Z,4.2
2018-05-14T02:16:19.115Z,4.2
2018-05-14T02:16:31.547Z,4.2
2018-05-14T02:16:43.956Z,4.2
2018-05-14T02:16:56.368Z,4.2
2018-05-14T02:17:08.886Z,4.12
2018-05-14T02:17:21.284Z,4.12
2018-05-14T02:17:33.693Z,4.12
2018-05-14T02:17:46.083Z,4.12
2018-05-14T02:17:58.546Z,4.12
2018-05-14T02:18:10.970Z,4.12
2018-05-14T02:18:23.553Z,4.12
2018-05-14T02:18:35.960Z,4.12
2018-05-14T02:18:48.468Z,4.12
2018-05-14T02:19:00.890Z,4.12
2018-05-14T02:19:13.300Z,4.12
2018-05-14T02:19:25.713Z,4.12
2018-05-14T02:19:38.127Z,4.12
2018-05-14T02:19:50.538Z,4.12
2018-05-14T02:20:02.945Z,4.12
2018-05-14T02:20:15.381Z,4.12
2018-05-14T02:20:27.788Z,4.12
2018-05-14T02:20:40.213Z,4.12
2018-05-14T02:20:52.623Z,4.12
2018-05-14T02:21:05.040Z,4.12
2018-05-14T02:21:17.461Z,4.12
2018-05-14T02:21:29.865Z,4.12
2018-05-14T02:21:42.291Z,4.12
2018-05-14T02:21:54.706Z,4.12
2018-05-14T02:22:07.105Z,4.12
2018-05-14T02:22:19.535Z,4.12
2018-05-14T02:22:31.944Z,4.12
2018-05-14T02:22:44.347Z,4.12
2018-05-14T02:22:56.746Z,4.12
2018-05-14T02:23:09.154Z,4.12
2018-05-14T02:23:21.596Z,4.12
2018-05-14T02:23:33.998Z,4.12
2018-05-14T02:23:46.416Z,4.12
2018-05-14T02:23:58.826Z,4.12
2018-05-14T02:24:11.240Z,4.12
2018-05-14T02:24:23.737Z,4.12
2018-05-14T02:24:36.140Z,4.12
2018-05-14T02:24:48.756Z,4.12
2018-05-14T02:25:01.247Z,4.12
2018-05-14T02:25:13.658Z,4.12
2018-05-14T02:25:26.165Z,4.12
2018-05-14T02:25:38.645Z,4.12
2018-05-14T02:25:51.044Z,4.12
2018-05-14T02:26:03.466Z,4.12
2018-05-14T02:26:15.882Z,4.12
2018-05-14T02:26:28.298Z,4.12
2018-05-14T02:26:40.755Z,4.12
2018-05-14T02:26:53.161Z,4.12
2018-05-14T02:27:05.650Z,4.2
2018-05-14T02:27:18.073Z,4.2
2018-05-14T02:27:30.472Z,4.2
2018-05-14T02:27:42.939Z,4.2
2018-05-14T02:27:55.374Z,4.2
2018-05-14T02:28:07.781Z,4.2
2018-05-14T02:28:20.181Z,4.2
2018-05-14T02:28:32.584Z,4.2
2018-05-14T02:28:44.986Z,4.2
2018-05-14T02:28:57.398Z,4.2
2018-05-14T02:29:09.818Z,4.2
2018-05-14T02:29:22.803Z,4.2
2018-05-14T02:29:35.910Z,4.2
2018-05-14T02:29:48.362Z,4.2
2018-05-14T02:30:00.794Z,4.2
2018-05-14T02:30:13.250Z,4.2
2018-05-14T02:30:25.680Z,4.2
2018-05-14T02:30:38.127Z,4.2
2018-05-14T02:30:50.544Z,4.2
2018-05-14T02:31:02.984Z,4.2
2018-05-14T02:31:15.427Z,4.2
2018-05-14T02:31:27.850Z,4.2
2018-05-14T02:31:40.283Z,4.2
2018-05-14T02:31:52.700Z,4.2
2018-05-14T02:32:05.136Z,4.2
2018-05-14T02:32:17.551Z,4.2
2018-05-14T02:32:30.015Z,4.2
2018-05-14T02:32:42.461Z,4.2
2018-05-14T02:32:54.972Z,4.2
2018-05-14T02:33:07.406Z,4.2
2018-05-14T02:33:19.824Z,4.2
2018-05-14T02:33:32.273Z,4.2
2018-05-14T02:33:44.724Z,4.2
2018-05-14T02:33:57.180Z,4.2
2018-05-14T02:34:09.605Z,4.2
2018-05-14T02:34:22.103Z,4.2
2018-05-14T02:34:34.553Z,4.2
2018-05-14T02:34:47.009Z,4.2
2018-05-14T02:34:59.456Z,4.2
2018-05-14T02:35:11.915Z,4.2
2018-05-14T02:35:24.350Z,4.2
2018-05-14T02:35:36.775Z,4.2
2018-05-14T02:35:49.194Z,4.2
2018-05-14T02:36:01.724Z,4.2
2018-05-14T02:36:14.231Z,4.2
2018-05-14T02:36:26.657Z,4.2
2018-05-14T02:36:39.103Z,4.2
2018-05-14T02:36:51.528Z,4.2
2018-05-14T02:37:03.980Z,4.1
2018-05-14T02:37:16.406Z,4.1
2018-05-14T02:37:28.851Z,4.1
2018-05-14T02:37:41.278Z,4.1
2018-05-14T02:37:53.679Z,4.1
2018-05-14T02:38:06.137Z,4.1
2018-05-14T02:38:18.556Z,4.1
2018-05-14T02:38:30.963Z,4.1
2018-05-14T02:38:43.418Z,4.1
2018-05-14T02:38:55.942Z,4.1
2018-05-14T02:39:08.459Z,4.1
2018-05-14T02:39:20.911Z,4.1
2018-05-14T02:39:33.444Z,4.1
2018-05-14T02:39:45.876Z,4.1
2018-05-14T02:39:58.290Z,4.1
2018-05-14T02:40:10.734Z,4.1
2018-05-14T02:40:23.177Z,4.1
2018-05-14T02:40:35.618Z,4.1
2018-05-14T02:40:48.048Z,4.1
2018-05-14T02:41:00.536Z,4.1
2018-05-14T02:41:12.966Z,4.1
2018-05-14T02:41:25.393Z,4.1
2018-05-14T02:41:37.825Z,4.1
2018-05-14T02:41:50.242Z,4.1
2018-05-14T02:42:02.790Z,4.1
2018-05-14T02:42:15.221Z,4.1
2018-05-14T02:42:27.662Z,4.1
2018-05-14T02:42:40.108Z,4.1
2018-05-14T02:42:52.519Z,4.1
2018-05-14T02:43:04.965Z,4.1
2018-05-14T02:43:17.394Z,4.1
2018-05-14T02:43:29.825Z,4.1
2018-05-14T02:43:42.244Z,4.1
2018-05-14T02:43:54.670Z,4.1
2018-05-14T02:44:07.099Z,4.1
2018-05-14T02:44:19.562Z,4.1
2018-05-14T02:44:31.995Z,4.1
2018-05-14T02:44:44.448Z,4.1
2018-05-14T02:44:56.892Z,4.1
2018-05-14T02:45:09.332Z,4.1
2018-05-14T02:45:21.795Z,4.1
2018-05-14T02:45:34.240Z,4.1
2018-05-14T02:45:46.689Z,4.1
2018-05-14T02:45:59.184Z,4.1
2018-05-14T02:46:11.614Z,4.1
2018-05-14T02:46:24.047Z,4.1
2018-05-14T02:46:36.481Z,4.1
2018-05-14T02:46:48.918Z,4.1
2018-05-14T02:47:01.370Z,4.02
2018-05-14T02:47:13.807Z,4.02
2018-05-14T02:47:26.246Z,4.02
2018-05-14T02:47:38.695Z,4.02